createdAt,value
2022-09-05T00:01:31.565Z,53
2022-09-05T00:03:15.289Z,53
2022-09-05T00:04:58.980Z,53.1
2022-09-05T00:06:42.678Z,53.1
2022-09-05T00:08:26.374Z,53.2
2022-09-05T00:10:10.075Z,53.2
2022-09-05T00:11:53.769Z,53.1
2022-09-05T00:13:37.479Z,53.1
2022-09-05T00:15:21.184Z,53.2
2022-09-05T00:17:04.871Z,53.2
2022-09-05T00:18:48.572Z,53.3
2022-09-05T00:20:32.277Z,53.3
2022-09-05T00:22:15.973Z,53.3
2022-09-05T00:23:59.677Z,53.3
2022-09-05T00:25:43.381Z,53.3
2022-09-05T00:27:27.070Z,53.4
2022-09-05T00:29:10.787Z,53.3
2022-09-05T00:30:54.482Z,53.3
2022-09-05T00:32:38.181Z,53.4
2022-09-05T00:34:21.896Z,53.3
2022-09-05T00:36:05.583Z,53.3
2022-09-05T00:37:49.289Z,53.3
2022-09-05T00:39:32.992Z,53.3
2022-09-05T00:41:16.690Z,53.2
2022-09-05T00:43:00.417Z,53.1
2022-09-05T00:44:44.096Z,53.2
2022-09-05T00:46:27.785Z,53.2
2022-09-05T00:48:11.502Z,53.1
2022-09-05T00:49:55.199Z,53.2
2022-09-05T00:51:38.886Z,53.1
2022-09-05T00:53:22.592Z,53.2
2022-09-05T00:55:06.312Z,53.2
2022-09-05T00:56:49.997Z,53.2
2022-09-05T00:58:33.700Z,53.1
2022-09-05T01:00:17.403Z,53.1
2022-09-05T01:02:01.097Z,53.1
2022-09-05T01:03:44.828Z,53.1
2022-09-05T01:05:28.535Z,53.1
2022-09-05T01:07:12.205Z,53.1
2022-09-05T01:08:55.935Z,53.1
2022-09-05T01:10:39.619Z,53
2022-09-05T01:12:23.339Z,53
2022-09-05T01:14:07.010Z,53
2022-09-05T01:15:50.713Z,53
2022-09-05T01:17:34.415Z,53
2022-09-05T01:19:18.151Z,53
2022-09-05T01:21:01.818Z,53
2022-09-05T01:22:45.521Z,52.9
2022-09-05T01:24:29.220Z,53
2022-09-05T01:26:12.926Z,53
2022-09-05T01:27:56.627Z,52.9
2022-09-05T01:29:40.314Z,52.9
2022-09-05T01:31:24.017Z,52.9
2022-09-05T01:33:07.731Z,52.9
2022-09-05T01:34:51.417Z,52.9
2022-09-05T01:36:35.126Z,52.9
2022-09-05T01:38:18.824Z,52.9
2022-09-05T01:40:02.532Z,52.9
2022-09-05T01:41:46.233Z,52.8
2022-09-05T01:43:29.926Z,52.8
2022-09-05T01:45:13.635Z,52.8
2022-09-05T01:46:57.336Z,52.8
2022-09-05T01:48:41.031Z,52.8
2022-09-05T01:50:24.734Z,52.8
2022-09-05T01:52:08.439Z,52.8
2022-09-05T01:53:52.128Z,52.8
2022-09-05T01:55:35.842Z,52.8
2022-09-05T01:57:19.535Z,52.7
2022-09-05T01:59:03.233Z,52.7
2022-09-05T02:00:46.948Z,52.6
2022-09-05T02:02:30.636Z,52.6
2022-09-05T02:04:14.343Z,52.6
2022-09-05T02:05:58.041Z,52.6
2022-09-05T02:07:41.759Z,52.5
2022-09-05T02:09:25.444Z,52.5
2022-09-05T02:11:09.168Z,52.5
2022-09-05T02:12:52.845Z,52.5
2022-09-05T02:14:36.558Z,52.5
2022-09-05T02:16:20.248Z,52.5
2022-09-05T02:18:03.949Z,52.4
2022-09-05T02:19:47.653Z,52.4
2022-09-05T02:21:31.347Z,52.4
2022-09-05T02:23:15.052Z,52.4
2022-09-05T02:24:58.758Z,52.3
2022-09-05T02:26:42.450Z,52.3
2022-09-05T02:28:26.156Z,52.3
2022-09-05T02:30:09.861Z,52.3
2022-09-05T02:31:53.564Z,52.3
2022-09-05T02:33:37.278Z,52.3
2022-09-05T02:35:20.964Z,52.2
2022-09-05T02:37:04.663Z,52.2
2022-09-05T02:38:48.369Z,52.2
2022-09-05T02:40:32.070Z,52.2
2022-09-05T02:42:15.772Z,52.1
2022-09-05T02:43:59.474Z,52.2
2022-09-05T02:45:43.212Z,52.2
2022-09-05T02:47:26.888Z,52.1
2022-09-05T02:49:10.579Z,52.1
2022-09-05T02:50:54.279Z,52.1
2022-09-05T02:52:37.979Z,52.1
2022-09-05T02:54:21.727Z,52.1
2022-09-05T02:56:05.384Z,52.1
2022-09-05T02:57:49.083Z,52.1
2022-09-05T02:59:32.783Z,52.1
2022-09-05T03:01:16.487Z,52.1
2022-09-05T03:03:00.188Z,52.1
2022-09-05T03:04:43.909Z,52.1
2022-09-05T03:06:27.614Z,52.1
2022-09-05T03:08:11.316Z,52.1
2022-09-05T03:09:54.993Z,52
2022-09-05T03:11:38.707Z,52
2022-09-05T03:13:22.394Z,52
2022-09-05T03:15:06.098Z,52
2022-09-05T03:18:33.499Z,52
2022-09-05T03:20:17.244Z,52
2022-09-05T03:22:00.915Z,52
2022-09-05T03:23:44.606Z,52
2022-09-05T03:25:28.303Z,52
2022-09-05T03:27:12.026Z,52
2022-09-05T03:28:55.741Z,51.9
2022-09-05T03:30:39.416Z,51.9
2022-09-05T03:32:23.106Z,51.9
2022-09-05T03:34:06.816Z,51.9
2022-09-05T03:35:50.514Z,51.9
2022-09-05T03:37:34.245Z,51.9
2022-09-05T03:39:17.958Z,51.9
2022-09-05T03:41:01.627Z,51.9
2022-09-05T03:42:45.321Z,51.8
2022-09-05T03:44:29.029Z,51.8
2022-09-05T03:46:12.749Z,51.8
2022-09-05T03:47:56.443Z,51.8
2022-09-05T03:49:40.129Z,51.8
2022-09-05T03:51:23.833Z,51.8
2022-09-05T03:53:07.531Z,51.8
2022-09-05T03:54:51.237Z,51.8
2022-09-05T03:56:34.932Z,51.7
2022-09-05T03:58:18.646Z,51.7
2022-09-05T04:00:02.339Z,51.8
2022-09-05T04:01:46.037Z,51.8
2022-09-05T04:03:29.739Z,51.7
2022-09-05T04:05:13.440Z,51.6
2022-09-05T04:06:57.143Z,51.6
2022-09-05T04:08:40.846Z,51.6
2022-09-05T04:10:24.601Z,51.6
2022-09-05T04:12:08.247Z,51.6
2022-09-05T04:13:51.959Z,51.6
2022-09-05T04:15:35.660Z,51.6
2022-09-05T04:17:19.357Z,51.6
2022-09-05T04:19:03.044Z,51.6
2022-09-05T04:20:46.754Z,51.6
2022-09-05T04:22:30.454Z,51.6
2022-09-05T04:24:14.150Z,51.6
2022-09-05T04:25:57.856Z,51.5
2022-09-05T04:27:41.571Z,51.6
2022-09-05T04:29:25.263Z,51.5
2022-09-05T04:31:08.960Z,51.5
2022-09-05T04:32:52.694Z,51.5
2022-09-05T04:34:36.360Z,51.5
2022-09-05T04:36:20.093Z,51.5
2022-09-05T04:38:03.756Z,51.4
2022-09-05T04:39:47.459Z,51.4
2022-09-05T04:41:31.183Z,51.4
2022-09-05T04:43:14.893Z,51.3
2022-09-05T04:44:58.565Z,51.3
2022-09-05T04:46:42.267Z,51.3
2022-09-05T04:48:25.988Z,51.2
2022-09-05T04:50:09.694Z,51.3
2022-09-05T04:51:53.409Z,51.2
2022-09-05T04:53:37.082Z,51.1
2022-09-05T04:55:20.825Z,51.3
2022-09-05T04:57:04.471Z,51.3
2022-09-05T04:58:48.181Z,51.6
2022-09-05T05:00:31.875Z,51.8
2022-09-05T05:02:15.576Z,51.6
2022-09-05T05:03:59.295Z,51.7
2022-09-05T05:05:42.981Z,51.5
2022-09-05T05:07:26.691Z,52.5
2022-09-05T05:09:10.401Z,52.3
2022-09-05T05:10:54.081Z,52.4
2022-09-05T05:12:37.782Z,52
2022-09-05T05:14:21.485Z,52.4
2022-09-05T05:16:05.191Z,52.8
2022-09-05T05:17:48.900Z,52.7
2022-09-05T05:19:32.588Z,52.6
2022-09-05T05:21:16.292Z,53.1
2022-09-05T05:22:59.994Z,53.5
2022-09-05T05:24:43.696Z,53
2022-09-05T05:26:27.402Z,53.2
2022-09-05T05:28:11.106Z,52.8
2022-09-05T05:29:54.814Z,52.7
2022-09-05T05:31:38.506Z,52.6
2022-09-05T05:33:22.212Z,52.8
2022-09-05T05:35:05.899Z,52.7
2022-09-05T05:36:49.637Z,52.6
2022-09-05T05:38:33.301Z,52.3
2022-09-05T05:40:17.011Z,52.5
2022-09-05T05:42:00.709Z,51.7
2022-09-05T05:43:44.405Z,51.1
2022-09-05T05:45:28.102Z,51
2022-09-05T05:47:11.849Z,51
2022-09-05T05:48:55.518Z,51
2022-09-05T05:50:39.224Z,51.2
2022-09-05T05:52:22.943Z,51.1
2022-09-05T05:54:06.627Z,50.9
2022-09-05T05:55:50.342Z,50.8
2022-09-05T05:57:34.030Z,50.8
2022-09-05T05:59:17.715Z,50.8
2022-09-05T06:01:01.418Z,50.8
2022-09-05T06:02:45.116Z,50.9
2022-09-05T06:04:28.841Z,50.9
2022-09-05T06:06:12.523Z,50.8
2022-09-05T06:07:56.217Z,50.8
2022-09-05T06:09:39.922Z,50.8
2022-09-05T06:11:23.631Z,50.8
2022-09-05T06:13:07.328Z,50.8
2022-09-05T06:14:51.060Z,50.9
2022-09-05T06:16:34.726Z,51
2022-09-05T06:18:18.431Z,51
2022-09-05T06:20:02.135Z,51
2022-09-05T06:21:45.835Z,51
2022-09-05T06:23:29.535Z,51.1
2022-09-05T06:25:13.239Z,51.1
2022-09-05T06:26:56.945Z,51.1
2022-09-05T06:28:40.638Z,51.2
2022-09-05T06:30:24.365Z,51.3
2022-09-05T06:32:08.043Z,51.3
2022-09-05T06:33:51.752Z,51.3
2022-09-05T06:35:35.437Z,51.3
2022-09-05T06:37:19.172Z,51.3
2022-09-05T06:39:02.849Z,51.4
2022-09-05T06:40:46.547Z,51.4
2022-09-05T06:42:30.241Z,51.5
2022-09-05T06:44:13.996Z,51.5
2022-09-05T06:45:57.646Z,51.5
2022-09-05T06:47:41.366Z,51.6
2022-09-05T06:49:25.049Z,51.6
2022-09-05T06:51:08.753Z,51.7
2022-09-05T06:52:52.473Z,51.8
2022-09-05T06:54:36.153Z,51.9
2022-09-05T06:56:19.858Z,52
2022-09-05T06:58:03.560Z,52
2022-09-05T06:59:47.262Z,52
2022-09-05T07:01:30.960Z,52
2022-09-05T07:03:14.693Z,52
2022-09-05T07:04:58.410Z,52.1
2022-09-05T07:06:42.080Z,52.1
2022-09-05T07:08:25.772Z,52.1
2022-09-05T07:10:09.503Z,52.2
2022-09-05T07:11:53.177Z,52.3
2022-09-05T07:13:36.869Z,52.3
2022-09-05T07:17:04.284Z,52.3
2022-09-05T07:18:47.973Z,52.4
2022-09-05T07:20:31.677Z,52.4
2022-09-05T07:22:15.384Z,52.4
2022-09-05T07:22:19.656Z,42.2
2022-09-05T07:22:19.732Z,42
2022-09-05T07:22:19.760Z,42
2022-09-05T07:22:19.792Z,41.8
2022-09-05T07:22:19.842Z,41.7
2022-09-05T07:22:19.863Z,41.5
2022-09-05T07:22:19.884Z,41.5
2022-09-05T07:22:20.729Z,41.7
2022-09-05T07:22:22.822Z,52.3
2022-09-05T07:22:29.371Z,41.5
2022-09-05T07:22:29.419Z,49.6
2022-09-05T07:22:29.491Z,41.4
2022-09-05T07:22:29.493Z,41.6
2022-09-05T07:22:39.279Z,41.5
2022-09-05T07:22:44.487Z,41.5
2022-09-05T07:22:45.913Z,41.5
2022-09-05T07:22:45.950Z,41.4
2022-09-05T07:23:59.097Z,52.4
2022-09-05T07:25:42.780Z,52.5
2022-09-05T07:27:26.489Z,52.4
2022-09-05T07:29:10.216Z,52.5
2022-09-05T07:30:53.899Z,52.6
2022-09-05T07:32:37.597Z,52.6
2022-09-05T07:34:21.299Z,52.6
2022-09-05T07:36:05.001Z,52.5
2022-09-05T07:37:48.693Z,52.6
2022-09-05T07:39:32.396Z,52.7
2022-09-05T07:41:16.108Z,52.7
2022-09-05T07:42:59.808Z,52.6
2022-09-05T07:44:43.505Z,52.6
2022-09-05T07:46:27.210Z,52.5
2022-09-05T07:48:10.908Z,52.4
2022-09-05T07:49:54.615Z,52.4
2022-09-05T07:51:38.312Z,52.3
2022-09-05T07:53:22.011Z,52.3
2022-09-05T07:55:05.723Z,52.3
2022-09-05T07:56:49.417Z,52.4
2022-09-05T07:58:33.122Z,52.3
2022-09-05T08:00:16.827Z,52.2
2022-09-05T08:02:00.533Z,52.2
2022-09-05T08:03:44.227Z,52.2
2022-09-05T08:05:27.936Z,52.2
2022-09-05T08:07:11.619Z,52.2
2022-09-05T08:08:55.367Z,52.2
2022-09-05T08:10:39.039Z,52.2
2022-09-05T08:12:22.736Z,52.3
2022-09-05T08:14:06.438Z,52.2
2022-09-05T08:15:50.137Z,52.2
2022-09-05T08:17:33.857Z,52.2
2022-09-05T08:19:17.547Z,52.2
2022-09-05T08:21:01.239Z,52.2
2022-09-05T08:24:28.646Z,52.2
2022-09-05T08:26:12.348Z,52.2
2022-09-05T08:27:56.048Z,52.3
2022-09-05T08:29:39.746Z,52.3
2022-09-05T08:31:23.455Z,52.3
2022-09-05T08:33:07.186Z,52.2
2022-09-05T08:34:50.869Z,52.2
2022-09-05T08:36:34.566Z,52.2
2022-09-05T08:38:18.265Z,52.2
2022-09-05T08:40:01.953Z,52.2
2022-09-05T08:41:45.660Z,52.1
2022-09-05T08:43:29.365Z,52.1
2022-09-05T08:45:13.056Z,52.1
2022-09-05T08:46:56.761Z,52.1
2022-09-05T08:48:40.460Z,52.3
2022-09-05T08:50:24.162Z,52.4
2022-09-05T08:52:07.859Z,52.3
2022-09-05T08:53:51.598Z,52.3
2022-09-05T08:55:35.268Z,52.3
2022-09-05T08:57:18.981Z,52.2
2022-09-05T08:59:02.665Z,52.2
2022-09-05T09:00:46.371Z,52.1
2022-09-05T09:02:30.073Z,52.1
2022-09-05T09:04:13.765Z,52.1
2022-09-05T09:05:57.468Z,52.3
2022-09-05T09:07:41.205Z,52.3
2022-09-05T09:09:24.868Z,52.4
2022-09-05T09:11:08.578Z,52.4
2022-09-05T09:12:52.275Z,52.3
2022-09-05T09:14:35.983Z,52.2
2022-09-05T09:16:19.683Z,52.2
2022-09-05T09:18:03.378Z,52.3
2022-09-05T09:19:47.096Z,52.4
2022-09-05T09:21:30.783Z,52.3
2022-09-05T09:23:14.483Z,52.3
2022-09-05T09:24:58.186Z,52.3
2022-09-05T09:26:41.889Z,52.4
2022-09-05T09:28:25.592Z,52.4
2022-09-05T09:30:09.301Z,52.4
2022-09-05T09:31:52.997Z,52.3
2022-09-05T09:33:36.715Z,52.3
2022-09-05T09:35:20.400Z,52.3
2022-09-05T09:37:04.102Z,52.3
2022-09-05T09:38:47.832Z,52.4
2022-09-05T09:40:31.501Z,52.5
2022-09-05T09:42:15.218Z,52.5
2022-09-05T09:43:58.918Z,52.6
2022-09-05T09:45:42.645Z,52.6
2022-09-05T09:47:26.305Z,52.8
2022-09-05T09:49:10.010Z,52.7
2022-09-05T09:50:53.706Z,52.6
2022-09-05T09:52:37.411Z,52.3
2022-09-05T09:54:21.119Z,52.2
2022-09-05T09:56:04.808Z,52.3
2022-09-05T09:57:48.545Z,52.3
2022-09-05T09:59:32.216Z,52.2
2022-09-05T10:01:15.914Z,52.2
2022-09-05T10:02:59.629Z,52.3
2022-09-05T10:04:43.325Z,52.3
2022-09-05T10:06:27.021Z,52.2
2022-09-05T10:08:10.723Z,52.1
2022-09-05T10:09:54.437Z,52
2022-09-05T10:11:38.130Z,52
2022-09-05T10:13:21.824Z,52
2022-09-05T10:15:05.527Z,51.9
2022-09-05T10:16:49.237Z,51.9
2022-09-05T10:18:32.934Z,52
2022-09-05T10:20:16.636Z,52
2022-09-05T10:22:00.334Z,51.8
2022-09-05T10:23:44.069Z,51.8
2022-09-05T10:25:27.737Z,51.8
2022-09-05T10:27:11.469Z,51.8
2022-09-05T10:28:55.150Z,51.8
2022-09-05T10:30:38.840Z,51.7
2022-09-05T10:32:22.561Z,51.7
2022-09-05T10:34:06.242Z,51.6
2022-09-05T10:35:49.957Z,51.6
2022-09-05T10:37:33.659Z,51.6
2022-09-05T10:39:17.387Z,51.7
2022-09-05T10:41:01.064Z,51.2
2022-09-05T10:42:44.770Z,51
2022-09-05T10:44:28.467Z,51.2
2022-09-05T10:46:12.165Z,51.2
2022-09-05T10:47:55.910Z,51.1
2022-09-05T10:49:39.567Z,50.9
2022-09-05T10:51:23.275Z,50.7
2022-09-05T10:53:06.978Z,50.3
2022-09-05T10:54:50.708Z,50.1
2022-09-05T10:56:34.389Z,50.2
2022-09-05T10:58:18.083Z,50.1
2022-09-05T11:00:01.794Z,50
2022-09-05T11:01:45.500Z,49.8
2022-09-05T11:03:29.181Z,49.4
2022-09-05T11:05:12.886Z,48.7
2022-09-05T11:06:56.613Z,48.8
2022-09-05T11:08:40.315Z,49
2022-09-05T11:10:23.997Z,49.1
2022-09-05T11:12:07.715Z,49
2022-09-05T11:13:51.428Z,48.9
2022-09-05T11:15:35.102Z,49
2022-09-05T11:17:18.799Z,49.2
2022-09-05T11:19:02.534Z,49.3
2022-09-05T11:20:46.213Z,49.3
2022-09-05T11:22:29.913Z,49.2
2022-09-05T11:24:13.604Z,49
2022-09-05T11:25:57.311Z,49.1
2022-09-05T11:27:41.018Z,48.9
2022-09-05T11:29:24.716Z,49.1
2022-09-05T11:31:08.418Z,49
2022-09-05T11:32:52.117Z,49.1
2022-09-05T11:34:35.825Z,49.1
2022-09-05T11:36:19.517Z,48.9
2022-09-05T11:38:03.226Z,48.8
2022-09-05T11:39:46.933Z,48.5
2022-09-05T11:41:30.629Z,48.6
2022-09-05T11:43:14.341Z,48.6
2022-09-05T11:44:58.043Z,48.6
2022-09-05T11:46:41.737Z,48.2
2022-09-05T11:48:25.436Z,48.3
2022-09-05T11:50:09.151Z,48.4
2022-09-05T11:51:52.846Z,48.5
2022-09-05T11:53:36.544Z,48.2
2022-09-05T11:55:20.253Z,48
2022-09-05T11:57:03.998Z,48.1
2022-09-05T11:58:47.739Z,48.3
2022-09-05T12:00:31.346Z,48.2
2022-09-05T12:02:15.129Z,47.9
2022-09-05T12:03:58.801Z,47.9
2022-09-05T12:05:42.511Z,48
2022-09-05T12:07:26.182Z,47.9
2022-09-05T12:09:09.929Z,47.9
2022-09-05T12:10:53.648Z,47.8
2022-09-05T12:12:37.316Z,47.8
2022-09-05T12:14:21.045Z,47.9
2022-09-05T12:16:04.773Z,47.8
2022-09-05T12:17:48.414Z,47.9
2022-09-05T12:19:32.132Z,47.9
2022-09-05T12:21:15.831Z,47.9
2022-09-05T12:22:59.498Z,47.5
2022-09-05T12:24:43.210Z,47.5
2022-09-05T12:26:27.008Z,47.5
2022-09-05T12:28:10.580Z,47.6
2022-09-05T12:29:54.286Z,47.6
2022-09-05T12:31:37.986Z,47.6
2022-09-05T12:33:21.674Z,47.7
2022-09-05T12:35:05.379Z,47.5
2022-09-05T12:36:49.087Z,47.4
2022-09-05T12:38:32.796Z,47.4
2022-09-05T12:40:16.495Z,47.5
2022-09-05T12:42:00.190Z,47.5
2022-09-05T12:43:43.895Z,47.5
2022-09-05T12:45:27.604Z,47.6
2022-09-05T12:47:11.310Z,47.6
2022-09-05T12:48:55.000Z,47.4
2022-09-05T12:50:38.720Z,47.2
2022-09-05T12:52:22.397Z,46.9
2022-09-05T12:54:06.102Z,46.7
2022-09-05T12:55:49.815Z,46.4
2022-09-05T12:57:33.515Z,46.5
2022-09-05T12:59:17.212Z,46.5
2022-09-05T13:01:00.914Z,46.5
2022-09-05T13:02:44.610Z,46.8
2022-09-05T13:04:28.317Z,46.9
2022-09-05T13:06:12.025Z,46.8
2022-09-05T13:07:55.723Z,46.8
2022-09-05T13:09:39.437Z,46.7
2022-09-05T13:11:23.119Z,46.7
2022-09-05T13:13:06.825Z,46.7
2022-09-05T13:14:50.540Z,46.8
2022-09-05T13:16:34.223Z,46.7
2022-09-05T13:18:17.924Z,46.7
2022-09-05T13:20:01.630Z,46.7
2022-09-05T13:21:45.322Z,46.6
2022-09-05T13:23:29.025Z,46.6
2022-09-05T13:25:12.735Z,46.6
2022-09-05T13:26:56.452Z,46.6
2022-09-05T13:28:40.144Z,46.6
2022-09-05T13:30:23.841Z,46.5
2022-09-05T13:32:07.540Z,46.5
2022-09-05T13:33:51.248Z,46.6
2022-09-05T13:35:34.946Z,46.7
2022-09-05T13:37:18.648Z,46.8
2022-09-05T13:39:02.361Z,46.8
2022-09-05T13:40:46.049Z,46.7
2022-09-05T13:42:29.756Z,46.5
2022-09-05T13:44:13.460Z,46.3
2022-09-05T13:45:57.158Z,45.8
2022-09-05T13:47:40.861Z,46
2022-09-05T13:49:24.564Z,46
2022-09-05T13:51:08.267Z,46.1
2022-09-05T13:52:51.976Z,46.1
2022-09-05T13:54:35.676Z,46.1
2022-09-05T13:56:19.390Z,45.8
2022-09-05T13:58:03.080Z,45.7
2022-09-05T13:59:46.792Z,45.6
2022-09-05T14:01:30.486Z,45.7
2022-09-05T14:03:14.190Z,45.5
2022-09-05T14:04:57.886Z,45.4
2022-09-05T14:06:41.592Z,45.5
2022-09-05T14:08:25.298Z,45.6
2022-09-05T14:10:08.985Z,45.6
2022-09-05T14:11:52.688Z,45.8
2022-09-05T14:13:36.395Z,45.8
2022-09-05T14:15:20.096Z,45.8
2022-09-05T14:17:03.802Z,45.7
2022-09-05T14:18:47.501Z,45.8
2022-09-05T14:20:31.212Z,45.7
2022-09-05T14:22:14.910Z,45.6
2022-09-05T14:23:58.625Z,45.6
2022-09-05T14:25:42.311Z,45.6
2022-09-05T14:27:26.015Z,45.5
2022-09-05T14:29:09.712Z,45.6
2022-09-05T14:30:53.424Z,45.6
2022-09-05T14:32:37.124Z,45.5
2022-09-05T14:34:20.824Z,45.5
2022-09-05T14:36:04.521Z,45.4
2022-09-05T14:37:48.231Z,45.5
2022-09-05T14:39:31.929Z,45.4
2022-09-05T14:41:15.633Z,45.2
2022-09-05T14:42:59.326Z,45.1
2022-09-05T14:44:43.034Z,45
2022-09-05T14:46:26.737Z,45.1
2022-09-05T14:49:54.217Z,44.5
2022-09-05T14:51:37.844Z,44.1
2022-09-05T14:53:21.552Z,43.9
2022-09-05T14:55:05.247Z,44
2022-09-05T14:56:48.948Z,44.1
2022-09-05T14:58:32.652Z,44.2
2022-09-05T15:00:16.359Z,44.3
2022-09-05T15:02:00.058Z,44.5
2022-09-05T15:03:43.760Z,44.5
2022-09-05T15:05:27.461Z,44.6
2022-09-05T15:07:11.157Z,44.7
2022-09-05T15:08:54.866Z,44.8
2022-09-05T15:10:38.564Z,44.8
2022-09-05T15:12:22.263Z,44.8
2022-09-05T15:14:05.966Z,44.8
2022-09-05T15:15:49.669Z,44.9
2022-09-05T15:17:33.376Z,44.7
2022-09-05T15:19:17.081Z,44.8
2022-09-05T15:21:00.774Z,44.9
2022-09-05T15:22:44.485Z,45
2022-09-05T15:24:28.190Z,45.2
2022-09-05T15:26:11.875Z,45.3
2022-09-05T15:27:55.587Z,45.3
2022-09-05T15:29:39.290Z,45.2
2022-09-05T15:31:22.986Z,45.2
2022-09-05T15:33:06.695Z,45.3
2022-09-05T15:34:50.392Z,45.4
2022-09-05T15:36:34.104Z,45.5
2022-09-05T15:38:17.826Z,45.5
2022-09-05T15:40:01.539Z,45.5
2022-09-05T15:41:45.208Z,45.6
2022-09-05T15:43:28.914Z,45.6
2022-09-05T15:45:12.608Z,45.7
2022-09-05T15:46:56.315Z,45.7
2022-09-05T15:48:40.019Z,45.7
2022-09-05T15:50:23.708Z,45.7
2022-09-05T15:52:07.429Z,45.7
2022-09-05T15:53:51.118Z,45.7
2022-09-05T15:55:34.825Z,45.7
2022-09-05T15:57:18.535Z,45.7
2022-09-05T15:59:02.237Z,45.7
2022-09-05T16:00:45.932Z,45.7
2022-09-05T16:02:29.634Z,45.8
2022-09-05T16:04:13.329Z,45.9
2022-09-05T16:05:57.032Z,45.8
2022-09-05T16:07:40.739Z,45.9
2022-09-05T16:09:24.438Z,45.9
2022-09-05T16:11:08.145Z,45.9
2022-09-05T16:12:51.844Z,45.9
2022-09-05T16:14:35.543Z,45.8
2022-09-05T16:16:19.250Z,45.7
2022-09-05T16:18:02.945Z,45.8
2022-09-05T16:19:46.650Z,45.8
2022-09-05T16:21:30.357Z,45.8
2022-09-05T16:23:14.134Z,45.9
2022-09-05T16:24:57.759Z,45.9
2022-09-05T16:26:41.463Z,46
2022-09-05T16:28:25.160Z,46
2022-09-05T16:30:08.865Z,46
2022-09-05T16:31:52.571Z,46.1
2022-09-05T16:33:36.264Z,46.2
2022-09-05T16:35:19.975Z,46.3
2022-09-05T16:37:03.668Z,46.4
2022-09-05T16:38:47.379Z,46.4
2022-09-05T16:40:31.081Z,46.4
2022-09-05T16:42:14.779Z,46.5
2022-09-05T16:43:58.490Z,46.4
2022-09-05T16:45:42.186Z,46.4
2022-09-05T16:47:25.886Z,46.4
2022-09-05T16:49:09.592Z,46.4
2022-09-05T16:50:53.295Z,46.4
2022-09-05T16:52:36.995Z,46.4
2022-09-05T16:54:20.700Z,46.4
2022-09-05T16:56:04.392Z,46.3
2022-09-05T16:57:48.104Z,46.3
2022-09-05T16:59:31.804Z,46.3
2022-09-05T17:01:15.507Z,46.1
2022-09-05T17:02:59.213Z,46
2022-09-05T17:04:42.916Z,46
2022-09-05T17:06:26.610Z,45.8
2022-09-05T17:08:10.318Z,45.8
2022-09-05T17:09:54.019Z,45.7
2022-09-05T17:11:37.736Z,45.7
2022-09-05T17:13:21.419Z,45.6
2022-09-05T17:15:05.118Z,45.6
2022-09-05T17:16:48.830Z,45.6
2022-09-05T17:18:32.530Z,45.6
2022-09-05T17:20:16.237Z,45.6
2022-09-05T17:21:59.934Z,45.6
2022-09-05T17:23:43.644Z,45.5
2022-09-05T17:25:27.333Z,45.5
2022-09-05T17:27:11.045Z,45.6
2022-09-05T17:28:54.749Z,45.7
2022-09-05T17:30:38.448Z,45.8
2022-09-05T17:32:22.148Z,45.9
2022-09-05T17:34:05.855Z,46.1
2022-09-05T17:35:49.554Z,46.2
2022-09-05T17:37:33.266Z,46.4
2022-09-05T17:39:16.983Z,46.7
2022-09-05T17:41:00.661Z,46.9
2022-09-05T17:42:44.376Z,47
2022-09-05T17:44:28.057Z,47
2022-09-05T17:46:11.773Z,47.1
2022-09-05T17:47:55.470Z,47.1
2022-09-05T17:49:39.177Z,47.2
2022-09-05T17:51:22.884Z,47.3
2022-09-05T17:53:06.577Z,47.4
2022-09-05T17:54:50.279Z,47.6
2022-09-05T17:56:33.987Z,47.6
2022-09-05T17:58:17.686Z,47.6
2022-09-05T18:00:01.383Z,47.7
2022-09-05T18:01:45.095Z,47.9
2022-09-05T18:03:28.788Z,49
2022-09-05T18:05:12.498Z,49.9
2022-09-05T18:06:56.197Z,50.9
2022-09-05T18:08:39.895Z,51.2
2022-09-05T18:10:23.602Z,51.5
2022-09-05T18:12:07.344Z,51.7
2022-09-05T18:13:51.094Z,51.8
2022-09-05T18:15:34.723Z,52.1
2022-09-05T18:17:18.473Z,52.3
2022-09-05T18:19:02.151Z,52
2022-09-05T18:20:45.857Z,51.7
2022-09-05T18:22:29.512Z,51.4
2022-09-05T18:24:13.257Z,51.1
2022-09-05T18:25:56.917Z,50.9
2022-09-05T18:27:40.706Z,50.9
2022-09-05T18:29:24.364Z,50.7
2022-09-05T18:31:08.062Z,50.7
2022-09-05T18:32:51.722Z,50.7
2022-09-05T18:34:35.502Z,50.6
2022-09-05T18:36:19.225Z,50.6
2022-09-05T18:38:02.868Z,50.6
2022-09-05T18:39:46.634Z,50.6
2022-09-05T18:41:30.285Z,50.6
2022-09-05T18:44:57.654Z,50.8
2022-09-05T18:46:41.397Z,50.7
2022-09-05T18:48:25.075Z,50.5
2022-09-05T18:50:08.803Z,50.4
2022-09-05T18:51:52.502Z,50.3
2022-09-05T18:53:36.179Z,50.2
2022-09-05T18:55:19.855Z,50.2
2022-09-05T18:57:03.557Z,50.1
2022-09-05T18:58:47.510Z,50.1
2022-09-05T19:00:30.961Z,50.1
2022-09-05T19:02:14.663Z,50.1
2022-09-05T19:03:58.365Z,50.2
2022-09-05T19:05:42.094Z,50.1
2022-09-05T19:07:25.845Z,50.2
2022-09-05T19:09:09.530Z,50.2
2022-09-05T19:10:53.192Z,50.2
2022-09-05T19:12:36.953Z,50.2
2022-09-05T19:14:20.574Z,50.3
2022-09-05T19:16:04.356Z,50.4
2022-09-05T19:17:47.984Z,50.4
2022-09-05T19:19:31.773Z,50.4
2022-09-05T19:21:15.461Z,50.4
2022-09-05T19:22:59.173Z,50.5
2022-09-05T19:24:42.795Z,50.4
2022-09-05T19:26:26.496Z,50.6
2022-09-05T19:28:10.187Z,50.6
2022-09-05T19:29:53.899Z,50.7
2022-09-05T19:31:37.601Z,50.8
2022-09-05T19:33:21.297Z,51
2022-09-05T19:35:05.004Z,51
2022-09-05T19:36:48.710Z,51.2
2022-09-05T19:38:32.401Z,51.3
2022-09-05T19:40:16.108Z,51.5
2022-09-05T19:41:59.811Z,51.3
2022-09-05T19:43:43.508Z,52
2022-09-05T19:45:27.207Z,52.8
2022-09-05T19:47:10.919Z,52.4
2022-09-05T19:48:54.621Z,52.9
2022-09-05T19:50:38.323Z,52.9
2022-09-05T19:52:22.024Z,52.8
2022-09-05T19:54:05.725Z,52.7
2022-09-05T19:55:49.428Z,52.6
2022-09-05T19:57:33.130Z,52.8
2022-09-05T19:59:16.827Z,52.7
2022-09-05T20:01:00.532Z,52.5
2022-09-05T20:02:44.236Z,52.7
2022-09-05T20:04:27.944Z,52.4
2022-09-05T20:06:11.641Z,52.6
2022-09-05T20:07:55.348Z,52.4
2022-09-05T20:09:39.053Z,52.3
2022-09-05T20:11:22.759Z,52.2
2022-09-05T20:13:06.449Z,52.1
2022-09-05T20:14:50.154Z,52.1
2022-09-05T20:16:33.850Z,52
2022-09-05T20:18:17.558Z,52
2022-09-05T20:20:01.262Z,52.1
2022-09-05T20:21:44.954Z,52.1
2022-09-05T20:23:28.661Z,52.2
2022-09-05T20:25:12.370Z,52.2
2022-09-05T20:26:56.069Z,52.1
2022-09-05T20:28:39.774Z,52.1
2022-09-05T20:30:23.462Z,52.1
2022-09-05T20:32:07.169Z,52.1
2022-09-05T20:33:50.872Z,52.1
2022-09-05T20:35:34.575Z,52.1
2022-09-05T20:37:18.280Z,52.3
2022-09-05T20:39:01.977Z,52.2
2022-09-05T20:40:45.684Z,52.2
2022-09-05T20:42:29.383Z,52.2
2022-09-05T20:44:13.088Z,52.2
2022-09-05T20:45:56.784Z,52.3
2022-09-05T20:47:40.495Z,52.3
2022-09-05T20:49:24.186Z,52.3
2022-09-05T20:51:07.911Z,52.3
2022-09-05T20:52:51.600Z,52.3
2022-09-05T20:54:35.293Z,52.3
2022-09-05T20:56:19.000Z,52.2
2022-09-05T20:58:02.705Z,52.1
2022-09-05T20:59:46.411Z,52
2022-09-05T21:01:30.106Z,52
2022-09-05T21:03:13.811Z,52
2022-09-05T21:04:57.514Z,52
2022-09-05T21:06:41.239Z,52
2022-09-05T21:08:24.917Z,52
2022-09-05T21:10:08.620Z,52
2022-09-05T21:11:52.326Z,51.9
2022-09-05T21:13:36.021Z,51.9
2022-09-05T21:15:19.720Z,51.9
2022-09-05T21:17:03.433Z,51.9
2022-09-05T21:18:47.134Z,51.9
2022-09-05T21:20:30.839Z,51.9
2022-09-05T21:22:14.549Z,51.8
2022-09-05T21:23:58.238Z,51.8
2022-09-05T21:25:41.945Z,51.8
2022-09-05T21:27:25.633Z,51.8
2022-09-05T21:29:09.340Z,51.8
2022-09-05T21:30:53.040Z,51.8
2022-09-05T21:32:36.749Z,51.7
2022-09-05T21:34:20.445Z,51.8
2022-09-05T21:36:04.144Z,51.9
2022-09-05T21:37:47.852Z,52
2022-09-05T21:39:31.558Z,52
2022-09-05T21:41:15.255Z,52
2022-09-05T21:42:58.968Z,51.9
2022-09-05T21:44:42.664Z,51.9
2022-09-05T21:46:26.359Z,51.9
2022-09-05T21:48:10.068Z,51.9
2022-09-05T21:49:53.768Z,51.8
2022-09-05T21:51:37.461Z,51.9
2022-09-05T21:53:21.171Z,51.9
2022-09-05T21:55:04.877Z,51.9
2022-09-05T21:56:48.571Z,51.9
2022-09-05T21:58:32.265Z,51.9
2022-09-05T22:00:15.979Z,52
2022-09-05T22:01:59.663Z,52
2022-09-05T22:03:43.376Z,52
2022-09-05T22:05:27.078Z,52
2022-09-05T22:07:10.775Z,52
2022-09-05T22:08:54.484Z,52.1
2022-09-05T22:10:38.180Z,52.1
2022-09-05T22:12:21.887Z,52.1
2022-09-05T22:14:05.592Z,52.2
2022-09-05T22:15:49.291Z,52.2
2022-09-05T22:17:32.992Z,52.2
2022-09-05T22:19:16.696Z,52.3
2022-09-05T22:21:00.386Z,52.3
2022-09-05T22:22:44.098Z,52.3
2022-09-05T22:24:27.803Z,52.3
2022-09-05T22:26:11.494Z,52.3
2022-09-05T22:27:55.200Z,52.3
2022-09-05T22:29:38.907Z,52.4
2022-09-05T22:31:22.593Z,52.4
2022-09-05T22:33:06.304Z,52.4
2022-09-05T22:34:50.009Z,52.4
2022-09-05T22:36:33.699Z,52.4
2022-09-05T22:38:17.406Z,52.4
2022-09-05T22:40:01.122Z,52.5
2022-09-05T22:41:44.808Z,52.5
2022-09-05T22:43:28.526Z,52.5
2022-09-05T22:45:12.220Z,52.5
2022-09-05T22:46:55.920Z,52.5
2022-09-05T22:48:39.628Z,52.6
2022-09-05T22:50:23.321Z,52.6